Time;durP1;ratioP1;P1;durP2;ratioP2;P2;SDS_P1;SDS_P2;PMS_P1;PMS_P2;Temp;Humidity;BMP_temperature;BMP_pressure;BME280_temperature;BME280_humidity;BME280_pressure;Samples;Min_cycle;Max_cycle;Signal;HPM_P1;HPM_P2
2023/10/01 00:00:44;;;;;;;31.70;14.90;;;;;;;18.07;41.59;99464.89;79199;1293;3011750;-66
2023/10/01 00:03:10;;;;;;;39.30;15.70;;;;;;;18.05;41.95;99460.86;80058;1297;3013417;-72
2023/10/01 00:05:39;;;;;;;35.50;16.40;;;;;;;18.00;42.39;99462.24;79519;1298;3011657;-64
2023/10/01 00:08:13;;;;;;;33.20;15.50;;;;;;;17.94;42.72;99461.70;78221;1298;3056492;-69
2023/10/01 00:10:43;;;;;;;36.70;16.20;;;;;;;17.92;42.66;99463.27;79533;1295;3011864;-68
2023/10/01 00:13:14;;;;;;;36.40;16.90;;;;;;;17.91;42.76;99458.79;78417;1297;3053016;-67
2023/10/01 00:15:41;;;;;;;28.20;13.90;;;;;;;17.95;42.16;99459.70;79512;1297;3013635;-67
2023/10/01 00:18:10;;;;;;;40.10;15.10;;;;;;;17.96;42.14;99459.39;79178;1297;3012746;-68
2023/10/01 00:20:37;;;;;;;31.20;14.80;;;;;;;17.99;42.31;99460.25;79677;1298;3012872;-72
2023/10/01 00:23:03;;;;;;;36.30;15.50;;;;;;;18.00;41.96;99457.79;79567;1297;3013045;-70
2023/10/01 00:25:32;;;;;;;36.40;15.50;;;;;;;17.99;42.58;99459.83;78502;1298;3028235;-69
2023/10/01 00:27:59;;;;;;;33.30;15.90;;;;;;;17.99;42.85;99459.87;79654;1295;3013478;-66
2023/10/01 00:30:31;;;;;;;30.00;15.90;;;;;;;18.00;42.83;99456.25;79869;1293;3011608;-64
2023/10/01 00:33:05;;;;;;;33.30;16.20;;;;;;;17.98;43.16;99455.52;78459;1298;3053443;-68
2023/10/01 00:35:31;;;;;;;41.60;16.30;;;;;;;17.91;43.66;99457.33;79723;1295;3011656;-69
2023/10/01 00:37:59;;;;;;;40.30;16.70;;;;;;;17.87;43.50;99459.47;78206;1298;3025944;-69
2023/10/01 00:40:27;;;;;;;31.90;15.10;;;;;;;17.86;43.51;99460.31;79508;1294;3013165;-71
2023/10/01 00:42:53;;;;;;;41.50;16.50;;;;;;;17.85;43.57;99459.47;79581;1298;3013037;-73
2023/10/01 00:45:21;;;;;;;35.50;14.40;;;;;;;17.82;43.17;99456.79;78269;1298;3053373;-71
2023/10/01 00:47:48;;;;;;;43.30;14.20;;;;;;;17.78;43.16;99454.80;79576;1298;3018412;-69
2023/10/01 00:50:15;;;;;;;32.20;14.60;;;;;;;17.79;42.91;99453.48;79781;1297;3014205;-71
2023/10/01 00:52:44;;;;;;;29.30;13.80;;;;;;;17.80;43.16;99453.21;78433;1298;3068265;-63
2023/10/01 00:55:13;;;;;;;33.50;13.60;;;;;;;17.79;42.85;99452.09;79691;1297;3019206;-65
2023/10/01 00:57:41;;;;;;;34.10;13.30;;;;;;;17.78;42.75;99451.81;79673;1295;3011766;-71
2023/10/01 01:00:12;;;;;;;24.30;12.20;;;;;;;17.80;42.81;99451.24;78267;1297;3053198;-65
2023/10/01 01:02:46;;;;;;;25.50;12.60;;;;;;;17.80;42.45;99446.98;79606;1298;3011641;-66
2023/10/01 01:05:20;;;;;;;27.60;12.10;;;;;;;17.80;42.58;99446.66;78178;1298;3054594;-73
2023/10/01 01:07:47;;;;;;;31.60;11.90;;;;;;;17.81;42.15;99445.70;79576;1298;3011831;-71
2023/10/01 01:10:20;;;;;;;26.10;12.00;;;;;;;17.81;42.03;99444.27;78431;1298;3069400;-73
2023/10/01 01:12:54;;;;;;;30.90;13.10;;;;;;;17.84;42.19;99444.40;79604;1297;3012047;-69
2023/10/01 01:15:21;;;;;;;28.00;11.90;;;;;;;17.83;42.17;99441.80;80845;1295;3055027;-67
2023/10/01 01:17:50;;;;;;;34.30;13.40;;;;;;;17.81;42.50;99443.86;82118;1293;3013238;-71
2023/10/01 01:20:19;;;;;;;33.60;13.80;;;;;;;17.80;42.81;99444.02;82141;1295;3011045;-70
2023/10/01 01:22:51;;;;;;;34.30;12.50;;;;;;;17.76;42.87;99446.58;80905;1295;3052890;-72
2023/10/01 01:25:20;;;;;;;35.50;14.10;;;;;;;17.77;42.99;99442.25;82095;1295;3011081;-67
2023/10/01 01:27:48;;;;;;;31.10;14.80;;;;;;;17.78;43.25;99442.23;80773;1295;3068626;-72
2023/10/01 01:30:26;;;;;;;38.50;16.00;;;;;;;17.74;44.33;99438.71;82148;1295;3018467;-68
2023/10/01 01:32:55;;;;;;;35.60;15.00;;;;;;;17.69;44.95;99444.81;80864;1293;3049241;-71
2023/10/01 01:35:28;;;;;;;38.90;15.20;;;;;;;17.65;45.20;99442.02;82087;1294;3012927;-71
2023/10/01 01:37:56;;;;;;;35.20;15.40;;;;;;;17.64;45.29;99442.64;80911;1295;3051783;-67
2023/10/01 01:40:29;;;;;;;33.10;15.30;;;;;;;17.60;45.99;99436.75;82158;1294;3012827;-65
2023/10/01 01:43:04;;;;;;;30.60;16.30;;;;;;;17.58;46.62;99437.44;80845;1295;3051287;-66
2023/10/01 01:45:32;;;;;;;39.20;18.40;;;;;;;17.54;47.17;99435.19;82149;1295;3011370;-73
2023/10/01 01:48:00;;;;;;;41.20;15.20;;;;;;;17.49;47.21;99434.71;80860;1294;3049412;-71
2023/10/01 01:50:27;;;;;;;36.20;15.50;;;;;;;17.46;47.20;99430.94;82125;1293;3012708;-69
2023/10/01 01:52:56;;;;;;;31.70;14.70;;;;;;;17.45;46.34;99426.20;82145;1295;3011174;-72
2023/10/01 01:55:29;;;;;;;37.40;14.90;;;;;;;17.43;45.91;99426.38;80793;1295;3052772;-66
2023/10/01 01:58:10;;;;;;;;;;;;;;;17.47;45.45;99424.86;82047;1295;3011272;-68
2023/10/01 02:00:46;;;;;;;34.40;13.50;;;;;;;17.45;45.50;99426.79;80804;1294;3050321;-66
2023/10/01 02:03:18;;;;;;;36.00;14.20;;;;;;;17.46;45.27;99427.76;80872;1293;3055035;-70
2023/10/01 02:05:47;;;;;;;37.80;15.10;;;;;;;17.49;45.40;99430.48;82142;1294;3011198;-65
2023/10/01 02:08:24;;;;;;;30.60;14.50;;;;;;;17.51;45.34;99427.14;80865;1294;3052108;-71
2023/10/01 02:10:53;;;;;;;28.30;13.90;;;;;;;17.53;45.32;99428.54;80849;1295;3051116;-72
2023/10/01 02:13:24;;;;;;;33.60;14.60;;;;;;;17.55;45.35;99430.45;82061;1294;3011300;-66
2023/10/01 02:15:53;;;;;;;34.30;14.90;;;;;;;17.52;45.98;99428.09;80913;1295;3051427;-70
2023/10/01 02:18:22;;;;;;;28.40;15.30;;;;;;;17.50;45.98;99428.09;82121;1293;3011012;-66
2023/10/01 02:20:56;;;;;;;39.40;17.90;;;;;;;17.50;46.40;99426.20;80799;1294;3026687;-69
2023/10/01 02:23:32;;;;;;;32.20;14.90;;;;;;;17.47;47.16;99426.64;82080;1294;3011233;-70
2023/10/01 02:26:06;;;;;;;37.90;16.60;;;;;;;17.42;47.46;99422.63;80891;1295;3048974;-69
2023/10/01 02:28:33;;;;;;;40.10;17.00;;;;;;;17.38;47.82;99421.52;82134;1295;3011203;-66
2023/10/01 02:31:01;;;;;;;43.00;16.90;;;;;;;17.33;48.52;99424.48;80867;1295;3049201;-68
2023/10/01 02:36:35;;;;;;;36.10;17.10;;;;;;;17.21;49.88;99428.36;80316;1301;3069111;-69
2023/10/01 02:39:11;;;;;;;42.60;18.00;;;;;;;17.17;50.01;99425.58;81655;1300;3011466;-70
2023/10/01 02:41:40;;;;;;;34.60;18.10;;;;;;;17.10;50.60;99432.70;80595;1294;3056340;-66
2023/10/01 02:44:11;;;;;;;39.50;18.50;;;;;;;17.03;51.05;99430.38;82059;1295;3011421;-68
2023/10/01 02:46:38;;;;;;;37.30;18.90;;;;;;;16.95;51.69;99435.27;80789;1295;3050222;-68
2023/10/01 02:49:05;;;;;;;37.50;20.00;;;;;;;16.91;51.85;99431.70;82153;1295;3013199;-67
2023/10/01 02:51:38;;;;;;;41.00;20.10;;;;;;;16.87;52.05;99431.71;80884;1294;3068836;-68
2023/10/01 02:54:05;;;;;;;41.70;18.10;;;;;;;16.83;51.87;99433.56;82174;1295;3012827;-70
2023/10/01 02:56:34;;;;;;;35.40;18.30;;;;;;;16.81;51.72;99431.67;82143;1295;3011370;-68
2023/10/01 02:59:10;;;;;;;42.70;18.80;;;;;;;16.76;51.44;99432.05;80863;1293;3052440;-65
2023/10/01 03:01:42;;;;;;;49.10;18.20;;;;;;;16.77;51.61;99426.67;80875;1293;3049512;-70
2023/10/01 03:04:14;;;;;;;37.80;17.30;;;;;;;16.76;51.37;99424.84;82040;1295;3011232;-70
2023/10/01 03:06:52;;;;;;;40.90;18.40;;;;;;;16.77;50.55;99424.60;80883;1294;3053084;-75
2023/10/01 03:09:33;;;;;;;46.80;16.40;;;;;;;16.69;51.53;99418.22;80901;1293;3068185;-67
2023/10/01 03:17:39;;;;;;;41.10;17.30;;;;;;;16.49;52.41;99422.59;80866;1295;3050025;-67
2023/10/01 03:21:02;;;;;;;40.20;17.70;;;;;;;16.47;52.66;99425.27;82146;1293;3011329;-68
2023/10/01 03:22:56;;;;;;;41.60;18.80;;;;;;;16.40;52.57;99423.33;80842;1295;3049788;-65
2023/10/01 03:25:28;;;;;;;36.10;16.80;;;;;;;16.34;52.40;99423.00;82140;1294;3011695;-68
2023/10/01 03:27:59;;;;;;;39.00;17.30;;;;;;;16.26;52.76;99421.52;80878;1293;3051913;-66
2023/10/01 03:30:32;;;;;;;41.30;18.00;;;;;;;16.19;52.63;99420.02;82129;1295;3011399;-70
2023/10/01 03:33:07;;;;;;;41.30;18.00;;;;;;;16.11;53.09;99419.24;80878;1294;3051932;-64
2023/10/01 03:35:35;;;;;;;42.90;17.90;;;;;;;16.10;53.17;99414.79;80890;1293;3055338;-65
2023/10/01 03:38:11;;;;;;;48.30;17.10;;;;;;;16.05;53.49;99416.55;82136;1294;3012755;-67
2023/10/01 03:43:47;;;;;;;37.80;17.60;;;;;;;16.03;53.80;99415.36;80759;1295;3052560;-69
2023/10/01 03:46:14;;;;;;;36.60;17.60;;;;;;;16.05;53.62;99416.95;80877;1293;3051423;-63
2023/10/01 03:54:26;;;;;;;38.00;18.10;;;;;;;16.32;51.26;99419.84;80876;1293;3050944;-67
2023/10/01 03:56:57;;;;;;;50.50;16.90;;;;;;;16.38;51.73;99421.18;81583;1294;3011208;-72
2023/10/01 03:59:27;;;;;;;36.20;15.30;;;;;;;16.40;51.20;99420.63;82201;1294;3011477;-71
2023/10/01 04:02:02;;;;;;;34.40;15.70;;;;;;;16.45;50.87;99416.74;80889;1294;3049570;-69
2023/10/01 04:04:31;;;;;;;38.30;18.20;;;;;;;16.47;51.71;99419.06;80887;1295;3052123;-71
2023/10/01 04:07:11;;;;;;;45.80;17.10;;;;;;;16.41;52.20;99419.69;82157;1295;3012429;-66
2023/10/01 04:09:46;;;;;;;38.40;16.70;;;;;;;16.41;52.60;99424.52;80905;1293;3050160;-67
2023/10/01 04:12:33;;;;;;;37.20;17.20;;;;;;;16.37;52.90;99417.73;81612;1293;3011161;-62
2023/10/01 04:15:04;;;;;;;39.60;16.80;;;;;;;16.34;53.64;99418.89;80861;1293;3056726;-65
2023/10/01 04:17:35;;;;;;;40.40;17.30;;;;;;;16.32;53.74;99420.84;82115;1294;3011652;-68
2023/10/01 04:20:19;;;;;;;35.80;17.00;;;;;;;16.32;53.85;99419.30;80904;1294;3051926;-67
2023/10/01 04:22:47;;;;;;;40.30;16.50;;;;;;;16.31;54.57;99418.78;80889;1294;3048200;-67
2023/10/01 04:25:14;;;;;;;46.40;17.90;;;;;;;16.32;54.75;99419.59;82140;1295;3013040;-75
2023/10/01 04:27:45;;;;;;;40.00;18.50;;;;;;;16.35;54.84;99417.73;82112;1295;3011614;-72
2023/10/01 04:30:14;;;;;;;35.80;17.40;;;;;;;16.39;54.63;99416.36;80895;1294;3049968;-67
2023/10/01 04:32:41;;;;;;;42.50;17.30;;;;;;;16.46;53.50;99413.15;82202;1293;3013082;-70
2023/10/01 04:35:14;;;;;;;32.90;16.10;;;;;;;16.52;52.95;99411.50;82190;1294;3011190;-64
2023/10/01 04:37:47;;;;;;;39.00;16.20;;;;;;;16.61;52.42;99407.41;80903;1294;3050001;-66
2023/10/01 04:40:32;;;;;;;34.60;15.60;;;;;;;16.70;51.08;99411.41;82147;1294;3011356;-67
2023/10/01 04:43:05;;;;;;;33.50;15.10;;;;;;;16.76;50.83;99411.74;80861;1295;3051690;-72
2023/10/01 04:45:36;;;;;;;34.40;15.70;;;;;;;16.82;50.67;99406.65;82193;1295;3011451;-69
2023/10/01 04:48:15;;;;;;;41.50;15.80;;;;;;;16.85;50.50;99406.91;80957;1293;3050941;-70
2023/10/01 04:50:44;;;;;;;42.20;15.10;;;;;;;16.91;50.07;99402.52;80832;1295;3055977;-71
2023/10/01 04:53:13;;;;;;;31.20;15.70;;;;;;;16.95;49.91;99403.77;82150;1293;3012759;-65
2023/10/01 04:55:42;;;;;;;33.00;14.70;;;;;;;16.98;49.76;99406.48;81586;1295;3011193;-70
2023/10/01 04:58:12;;;;;;;39.60;16.40;;;;;;;17.05;49.76;99408.06;82145;1295;3018519;-73
2023/10/01 05:00:41;;;;;;;40.70;15.10;;;;;;;17.10;49.55;99407.40;81605;1295;3011354;-68
2023/10/01 05:03:10;;;;;;;36.20;15.60;;;;;;;17.14;49.73;99410.98;82162;1295;3013085;-69
2023/10/01 05:05:39;;;;;;;37.70;15.50;;;;;;;17.19;49.98;99413.88;81645;1293;3011476;-68
2023/10/01 05:08:07;;;;;;;34.20;18.30;;;;;;;17.20;50.95;99416.59;82172;1294;3011507;-68
2023/10/01 05:10:51;;;;;;;47.90;21.20;;;;;;;17.19;54.31;99418.27;82154;1294;3011357;-71
2023/10/01 05:13:23;;;;;;;43.20;21.90;;;;;;;17.12;56.36;99408.52;80884;1293;3052600;-66
2023/10/01 05:15:49;;;;;;;43.40;21.60;;;;;;;17.05;56.91;99412.84;82130;1294;3011315;-70
2023/10/01 05:18:17;;;;;;;43.30;23.20;;;;;;;17.05;56.18;99410.66;80874;1295;3026918;-67
2023/10/01 05:20:48;;;;;;;51.90;22.60;;;;;;;17.05;57.30;99409.93;82150;1294;3013064;-69
2023/10/01 05:23:17;;;;;;;45.20;22.30;;;;;;;17.05;57.40;99405.70;80845;1295;3051384;-67
2023/10/01 05:25:45;;;;;;;50.80;20.80;;;;;;;17.05;56.73;99401.11;82161;1293;3011081;-68
2023/10/01 05:28:23;;;;;;;40.80;17.30;;;;;;;17.14;54.02;99401.58;81596;1294;3011303;-71
2023/10/01 05:30:57;;;;;;;37.40;17.70;;;;;;;17.25;52.42;99403.80;80861;1295;3053235;-74
2023/10/01 05:33:27;;;;;;;45.60;18.10;;;;;;;17.39;52.53;99407.48;81586;1295;3011415;-72
2023/10/01 05:35:57;;;;;;;43.80;16.90;;;;;;;17.49;52.28;99406.38;82142;1294;3011645;-67
2023/10/01 05:38:26;;;;;;;34.00;17.50;;;;;;;17.59;52.09;99396.23;80915;1295;3051307;-69
2023/10/01 05:40:55;;;;;;;31.70;17.40;;;;;;;17.74;51.98;99402.36;82114;1297;3012618;-69
2023/10/01 05:43:27;;;;;;;32.80;16.00;;;;;;;17.84;50.95;99401.14;81608;1295;3011345;-65
2023/10/01 05:45:54;;;;;;;37.20;16.10;;;;;;;17.96;50.45;99402.68;82108;1295;3011432;-70
2023/10/01 05:48:23;;;;;;;35.20;15.70;;;;;;;18.07;50.37;99399.35;80881;1293;3026224;-72
2023/10/01 05:50:49;;;;;;;37.50;16.50;;;;;;;18.16;50.53;99403.67;82171;1294;3011970;-69
2023/10/01 05:53:18;;;;;;;41.90;16.00;;;;;;;18.26;50.40;99405.25;82131;1294;3011206;-68
2023/10/01 05:55:46;;;;;;;32.20;16.30;;;;;;;18.33;50.38;99407.41;80878;1295;3051890;-67
2023/10/01 05:58:13;;;;;;;37.70;15.60;;;;;;;18.40;50.18;99402.38;82171;1294;3018591;-69
2023/10/01 06:00:45;;;;;;;43.50;14.70;;;;;;;18.46;49.30;99404.45;82168;1294;3011238;-68
2023/10/01 06:03:14;;;;;;;31.40;13.60;;;;;;;18.54;48.62;99403.34;80809;1294;3048407;-68
2023/10/01 06:08:24;;;;;;;43.60;12.70;;;;;;;18.72;46.92;99405.36;82167;1294;3010919;-69
2023/10/01 06:11:05;;;;;;;;;;;;;;;18.78;46.74;99402.38;80894;1295;3052499;-75
2023/10/01 06:13:48;;;;;;;28.90;13.00;;;;;;;18.82;46.49;99404.92;80912;1295;3068388;-66
2023/10/01 06:16:22;;;;;;;28.40;12.60;;;;;;;18.89;46.56;99405.20;80957;1294;3051415;-67
2023/10/01 06:18:56;;;;;;;31.80;13.10;;;;;;;18.97;46.94;99405.48;82190;1294;3011395;-69
2023/10/01 06:21:28;;;;;;;40.90;14.40;;;;;;;19.04;46.48;99401.27;80912;1295;3048995;-69
2023/10/01 06:23:58;;;;;;;33.60;15.20;;;;;;;19.13;46.42;99405.68;82241;1294;3011334;-70
2023/10/01 06:26:37;;;;;;;30.80;14.10;;;;;;;19.18;46.35;99402.16;80904;1294;3049522;-69
2023/10/01 06:29:10;;;;;;;33.20;14.10;;;;;;;19.27;45.99;99407.31;80886;1297;3052636;-76
2023/10/01 06:34:26;;;;;;;31.60;14.10;;;;;;;19.50;45.64;99407.43;80898;1294;3070096;-73
2023/10/01 06:36:58;;;;;;;27.20;13.10;;;;;;;19.58;45.63;99408.21;82190;1294;3012861;-67
2023/10/01 06:39:33;;;;;;;37.70;13.90;;;;;;;19.66;45.64;99402.83;80894;1293;3047809;-72
2023/10/01 06:42:20;;;;;;;32.20;13.30;;;;;;;19.76;45.16;99400.17;81580;1295;3011463;-66
2023/10/01 06:52:34;;;;;;;29.90;13.00;;;;;;;20.26;43.62;99396.43;79353;1298;3011559;-68
2023/10/01 06:55:02;;;;;;;24.40;11.60;;;;;;;20.37;43.71;99399.05;77925;1299;3049418;-69
2023/10/01 06:57:33;;;;;;;31.20;11.50;;;;;;;20.47;43.10;99402.82;79299;1304;3013419;-72
2023/10/01 07:00:01;;;;;;;28.80;10.50;;;;;;;20.57;42.79;99398.08;78096;1303;3070965;-69
2023/10/01 07:02:28;;;;;;;25.20;10.90;;;;;;;20.65;42.74;99399.17;77037;1299;3149753;-68
2023/10/01 07:05:01;;;;;;;28.80;11.20;;;;;;;20.76;42.36;99401.65;79300;1299;3011589;-72
2023/10/01 07:07:28;;;;;;;26.90;9.80;;;;;;;20.86;42.07;99403.29;78155;1298;3053219;-68
2023/10/01 07:10:00;;;;;;;27.70;10.20;;;;;;;20.97;41.97;99399.78;79401;1298;3020687;-66
2023/10/01 07:12:29;;;;;;;29.30;9.80;;;;;;;21.13;42.02;99400.27;78132;1301;3053213;-74
2023/10/01 07:14:57;;;;;;;24.90;9.70;;;;;;;21.25;41.83;99403.77;79388;1300;3013158;-65
2023/10/01 07:17:24;;;;;;;24.70;10.10;;;;;;;21.36;41.53;99403.72;79455;1297;3011735;-67
2023/10/01 07:20:16;;;;;;;23.20;8.80;;;;;;;21.43;41.25;99399.80;78107;1300;3049351;-73
2023/10/01 07:22:44;;;;;;;26.80;9.00;;;;;;;21.57;41.39;99405.12;78413;1299;3054478;-65
2023/10/01 07:25:28;;;;;;;23.00;9.50;;;;;;;21.67;40.79;99401.17;79606;1301;3018293;-66
2023/10/01 07:27:56;;;;;;;;;;;;;;;21.76;40.49;99400.71;78355;1301;3051562;-72
2023/10/01 07:30:39;;;;;;;23.30;8.00;;;;;;;21.78;40.07;99397.30;79520;1298;3019157;-72
2023/10/01 07:33:07;;;;;;;24.20;7.70;;;;;;;21.87;39.60;99401.64;78358;1297;3055768;-70
2023/10/01 07:35:34;;;;;;;20.30;7.50;;;;;;;21.98;39.58;99397.86;79375;1299;3014020;-68
2023/10/01 07:38:02;;;;;;;25.60;7.70;;;;;;;22.07;38.63;99393.77;79635;1305;3011893;-71
2023/10/01 07:40:50;;;;;;;24.80;6.70;;;;;;;22.18;38.64;99391.02;78036;1298;3051801;-67
2023/10/01 07:43:18;;;;;;;27.60;8.50;;;;;;;22.32;38.10;99390.31;77988;1298;3052931;-76
2023/10/01 07:45:55;;;;;;;27.70;7.90;;;;;;;22.46;37.22;99390.77;79431;1300;3013434;-76
2023/10/01 07:48:27;;;;;;;26.90;9.50;;;;;;;22.56;37.15;99392.18;78193;1296;3057201;-75
2023/10/01 07:50:55;;;;;;;23.60;8.00;;;;;;;22.67;37.24;99393.04;79402;1297;3011953;-76
2023/10/01 07:53:24;;;;;;;18.60;6.90;;;;;;;22.80;36.99;99393.80;78232;1300;3053344;-68
2023/10/01 07:55:50;;;;;;;21.00;8.20;;;;;;;22.88;36.62;99391.63;79654;1301;3015722;-67
2023/10/01 07:58:23;;;;;;;20.10;7.50;;;;;;;22.96;36.83;99390.47;80397;1301;3011126;-62
2023/10/01 08:01:32;;;;;;;25.50;8.30;;;;;;;23.08;36.83;99391.27;78279;1298;3068473;-72
2023/10/01 08:03:55;;;;;;;28.70;8.40;;;;;;;23.21;36.83;99390.95;78317;1298;3051708;-71
2023/10/01 08:06:30;;;;;;;19.10;7.20;;;;;;;23.32;36.49;99388.96;78374;1298;3056011;-67
2023/10/01 08:08:57;;;;;;;32.30;6.40;;;;;;;23.40;35.87;99387.43;79566;1295;3011804;-72
2023/10/01 08:14:16;;;;;;;21.50;6.40;;;;;;;23.61;35.78;99378.41;78502;1298;3050823;-70
2023/10/01 08:16:48;;;;;;;20.10;6.70;;;;;;;23.72;35.62;99381.81;79562;1295;3012149;-65
2023/10/01 08:19:20;;;;;;;20.80;6.30;;;;;;;23.81;35.46;99379.00;78353;1298;3053047;-66
2023/10/01 08:21:50;;;;;;;21.70;6.50;;;;;;;23.86;35.16;99378.59;79651;1296;3011889;-72
2023/10/01 08:24:18;;;;;;;24.30;6.40;;;;;;;23.95;34.94;99371.05;78431;1298;3049588;-71
2023/10/01 08:27:12;;;;;;;23.10;6.60;;;;;;;24.04;35.23;99368.41;79588;1295;3012773;-71
2023/10/01 08:32:38;;;;;;;23.70;6.00;;;;;;;24.28;34.65;99361.08;78385;1295;3049704;-68
2023/10/01 08:35:06;;;;;;;27.60;6.10;;;;;;;24.43;34.17;99359.44;78529;1295;3053689;-71
2023/10/01 08:37:37;;;;;;;21.00;6.30;;;;;;;24.52;34.12;99356.33;80006;1295;3014208;-72
2023/10/01 08:40:13;;;;;;;27.50;6.70;;;;;;;24.57;33.90;99352.72;78608;1298;3050472;-67
2023/10/01 08:42:44;;;;;;;21.30;5.80;;;;;;;24.63;33.69;99351.13;78459;1298;3057640;-68
2023/10/01 08:45:12;;;;;;;22.00;6.20;;;;;;;24.72;33.58;99354.55;79673;1294;3013362;-66
2023/10/01 08:47:42;;;;;;;24.00;6.20;;;;;;;24.83;33.69;99350.39;78434;1295;3025771;-76
2023/10/01 08:50:45;;;;;;;20.70;7.10;;;;;;;24.94;33.00;99350.20;79536;1295;3013596;-66
2023/10/01 08:53:13;;;;;;;25.60;7.80;;;;;;;25.06;32.91;99348.41;78305;1295;3052315;-66
2023/10/01 09:00:56;;;;;;;22.50;6.70;;;;;;;25.40;32.91;99349.67;78392;1295;3051442;-70
2023/10/01 09:03:28;;;;;;;34.20;7.20;;;;;;;25.47;32.48;99344.50;78286;1295;3055295;-72
2023/10/01 09:06:08;;;;;;;21.80;6.60;;;;;;;25.54;32.69;99345.67;79381;1295;3013026;-71
2023/10/01 09:08:42;;;;;;;23.40;6.90;;;;;;;25.67;32.08;99339.74;78213;1295;3052088;-66
2023/10/01 09:11:13;;;;;;;14.60;6.40;;;;;;;25.77;31.90;99339.81;79584;1295;3011788;-69
2023/10/01 09:13:58;;;;;;;26.70;6.60;;;;;;;25.81;32.20;99342.91;78359;1300;3053495;-67
2023/10/01 09:16:31;;;;;;;22.10;6.30;;;;;;;25.82;31.91;99336.49;78351;1298;3053089;-72
2023/10/01 09:19:29;;;;;;;16.00;6.40;;;;;;;25.83;32.05;99341.44;79363;1295;3011551;-63
2023/10/01 09:21:54;;;;;;;;;;;;;;;25.91;31.93;99330.94;78251;1295;3050369;-69
2023/10/01 09:24:38;;;;;;;28.30;7.90;;;;;;;25.94;31.76;99331.45;79654;1295;3012062;-73
2023/10/01 09:27:09;;;;;;;26.50;6.70;;;;;;;26.03;31.74;99328.13;78295;1299;3050034;-65
2023/10/01 09:29:46;;;;;;;22.90;6.90;;;;;;;26.10;31.11;99329.11;79530;1300;3011703;-70
2023/10/01 09:32:14;;;;;;;27.70;7.90;;;;;;;26.19;31.11;99328.08;78758;1295;3051211;-69
2023/10/01 09:34:47;;;;;;;25.80;8.20;;;;;;;26.26;31.25;99323.69;80252;1299;3013664;-73
2023/10/01 09:37:41;;;;;;;22.50;7.90;;;;;;;26.25;30.68;99324.06;78434;1295;3068051;-70
2023/10/01 09:40:43;;;;;;;27.40;6.80;;;;;;;26.35;30.49;99323.69;78321;1298;3050677;-76
2023/10/01 09:43:04;;;;;;;24.90;6.80;;;;;;;26.44;30.57;99316.93;78507;1300;3056412;-69
2023/10/01 09:45:38;;;;;;;21.60;8.20;;;;;;;26.49;30.50;99318.25;79711;1295;3013791;-70
2023/10/01 09:48:09;;;;;;;25.80;7.90;;;;;;;26.61;30.52;99314.16;78418;1298;3049501;-72
2023/10/01 09:50:41;;;;;;;22.90;7.50;;;;;;;26.67;30.18;99312.11;79506;1295;3011393;-69
2023/10/01 09:53:14;;;;;;;30.80;8.30;;;;;;;26.84;30.37;99315.63;78289;1309;3052016;-71
2023/10/01 09:55:48;;;;;;;20.40;7.70;;;;;;;26.89;30.68;99308.17;79401;1298;3011507;-77
2023/10/01 09:58:25;;;;;;;39.20;7.10;;;;;;;27.01;30.40;99310.41;78304;1296;3050906;-69
2023/10/01 10:00:55;;;;;;;16.50;5.90;;;;;;;27.09;29.82;99310.01;78388;1298;3057851;-69
2023/10/01 10:03:21;;;;;;;19.40;5.80;;;;;;;27.13;29.01;99305.20;79620;1295;3013367;-73
2023/10/01 10:05:48;;;;;;;19.50;5.70;;;;;;;27.25;29.26;99307.36;79502;1295;3011767;-74
2023/10/01 10:08:20;;;;;;;16.70;6.30;;;;;;;27.27;28.42;99307.75;78344;1300;3052194;-73
2023/10/01 10:10:50;;;;;;;22.30;6.20;;;;;;;27.22;28.24;99308.86;79561;1295;3012663;-68
2023/10/01 10:13:57;;;;;;;17.20;6.10;;;;;;;27.29;28.06;99304.27;78246;1295;3068760;-71
2023/10/01 10:16:30;;;;;;;18.60;6.10;;;;;;;27.30;27.64;99302.59;78256;1298;3051449;-67
2023/10/01 10:19:04;;;;;;;27.90;5.80;;;;;;;27.25;27.78;99300.73;79508;1298;3011571;-67
2023/10/01 10:22:05;;;;;;;20.40;5.50;;;;;;;27.26;27.63;99299.45;78387;1301;3049337;-75
2023/10/01 10:24:46;;;;;;;22.20;5.10;;;;;;;27.38;27.58;99296.31;78377;1300;3053628;-70
2023/10/01 10:27:24;;;;;;;20.20;5.60;;;;;;;27.53;27.81;99295.63;78258;1300;3050772;-70
2023/10/01 10:30:00;;;;;;;13.80;5.10;;;;;;;27.73;27.56;99290.83;78357;1294;3052758;-70
2023/10/01 10:32:41;;;;;;;14.40;4.90;;;;;;;27.75;27.28;99285.20;78346;1294;3053796;-66
2023/10/01 10:35:14;;;;;;;18.70;5.10;;;;;;;27.68;26.98;99284.54;78358;1295;3068889;-70
2023/10/01 10:37:56;;;;;;;;;;;;;;;27.80;27.33;99285.27;79564;1295;3011321;-75
2023/10/01 10:40:26;;;;;;;13.90;4.10;;;;;;;27.69;27.26;99280.63;78380;1301;3058011;-70
2023/10/01 10:42:59;;;;;;;17.40;5.10;;;;;;;27.71;26.53;99276.64;79560;1295;3013403;-66
2023/10/01 10:45:43;;;;;;;17.40;5.40;;;;;;;27.71;26.78;99276.02;78443;1301;3051469;-64
2023/10/01 10:48:14;;;;;;;19.00;5.70;;;;;;;27.75;26.95;99277.47;78657;1299;3050985;-63
2023/10/01 10:50:44;;;;;;;24.10;5.90;;;;;;;27.86;26.52;99275.24;80423;1296;3013028;-70
2023/10/01 10:53:15;;;;;;;22.40;6.40;;;;;;;27.84;26.16;99270.27;79130;1301;3052387;-71
2023/10/01 10:56:07;;;;;;;26.70;5.60;;;;;;;27.81;26.40;99268.23;80476;1295;3011846;-70
2023/10/01 10:58:45;;;;;;;24.80;5.90;;;;;;;27.78;26.21;99264.13;79157;1295;3050129;-69
2023/10/01 11:01:18;;;;;;;18.00;5.40;;;;;;;27.68;26.26;99262.86;78972;1298;3056526;-77
2023/10/01 11:03:55;;;;;;;17.20;6.10;;;;;;;27.86;26.21;99261.59;79619;1295;3011608;-68
2023/10/01 11:06:30;;;;;;;14.40;5.30;;;;;;;27.75;26.01;99259.61;78196;1298;3053745;-76
2023/10/01 11:08:59;;;;;;;10.00;5.00;;;;;;;27.82;26.03;99253.58;80424;1295;3011718;-72
2023/10/01 11:11:39;;;;;;;18.10;4.90;;;;;;;27.98;25.77;99258.20;78395;1295;3052730;-71
2023/10/01 11:14:15;;;;;;;12.00;5.50;;;;;;;28.10;25.37;99252.99;78619;1295;3052874;-68
2023/10/01 11:16:45;;;;;;;23.20;5.20;;;;;;;28.16;25.88;99246.25;78420;1300;3067441;-70
2023/10/01 11:19:12;;;;;;;18.40;4.90;;;;;;;28.24;26.10;99244.30;79551;1295;3013212;-71
2023/10/01 11:21:55;;;;;;;11.80;4.80;;;;;;;28.41;26.01;99245.52;79504;1299;3012850;-72
2023/10/01 11:24:24;;;;;;;;;;;;;;;28.46;25.36;99245.04;78415;1295;3053206;-74
2023/10/01 11:27:20;;;;;;;21.20;4.90;;;;;;;28.34;25.48;99241.52;79619;1295;3012883;-68
2023/10/01 11:30:19;;;;;;;12.70;5.70;;;;;;;28.26;25.73;99242.96;78482;1298;3052370;-66
2023/10/01 11:32:58;;;;;;;12.10;5.30;;;;;;;28.14;25.31;99241.44;78544;1299;3069184;-70
2023/10/01 11:35:34;;;;;;;17.50;6.00;;;;;;;28.13;25.31;99237.52;78296;1295;3051146;-74
2023/10/01 11:38:08;;;;;;;23.40;5.10;;;;;;;28.21;25.55;99238.83;79077;1299;3012077;-75
2023/10/01 11:43:27;;;;;;;20.60;5.80;;;;;;;28.33;25.23;99237.48;78425;1298;3049791;-70
2023/10/01 11:46:19;;;;;;;15.50;5.40;;;;;;;28.47;25.48;99235.02;79675;1298;3011977;-72
2023/10/01 11:48:56;;;;;;;16.00;5.40;;;;;;;28.41;25.76;99234.70;78618;1298;3050919;-73
2023/10/01 11:51:48;;;;;;;23.50;5.40;;;;;;;28.50;25.41;99237.44;78317;1308;3052431;-65
2023/10/01 11:54:19;;;;;;;19.80;5.90;;;;;;;28.55;24.73;99233.18;78310;1298;3053201;-68
2023/10/01 11:56:46;;;;;;;14.90;5.30;;;;;;;28.49;24.81;99231.48;79538;1295;3011691;-66
2023/10/01 11:59:20;;;;;;;13.30;4.80;;;;;;;28.55;24.95;99230.35;78485;1298;3026708;-72
2023/10/01 12:01:51;;;;;;;19.20;5.90;;;;;;;28.65;24.48;99226.80;79574;1295;3013606;-70
2023/10/01 12:05:03;;;;;;;16.90;4.70;;;;;;;28.47;24.62;99219.84;78344;1298;3049895;-65
2023/10/01 12:07:17;;;;;;;8.70;4.80;;;;;;;28.58;24.51;99220.37;78330;1295;3053350;-73
2023/10/01 12:09:48;;;;;;;16.60;5.00;;;;;;;28.75;24.30;99220.54;79624;1295;3011769;-72
2023/10/01 12:12:36;;;;;;;22.90;5.20;;;;;;;28.92;24.09;99218.13;78355;1298;3052290;-72
2023/10/01 12:17:56;;;;;;;18.60;4.90;;;;;;;28.90;24.16;99214.79;78493;1296;3069039;-72
2023/10/01 12:20:22;;;;;;;22.70;4.60;;;;;;;28.88;25.16;99217.20;79700;1296;3013676;-70